sensor_id;sensor_type;location;lat;lon;timestamp;P1;durP1;ratioP1;P2;durP2;ratioP2
22476;SDS011;11405;51.698;-0.292;2022-07-23T00:02:09;2.75;;;1.67;;
22476;SDS011;11405;51.698;-0.292;2022-07-23T00:04:35;5.03;;;1.83;;
22476;SDS011;11405;51.698;-0.292;2022-07-23T00:07:01;4.65;;;1.48;;
22476;SDS011;11405;51.698;-0.292;2022-07-23T00:09:27;6.32;;;2.00;;
22476;SDS011;11405;51.698;-0.292;2022-07-23T00:11:55;2.15;;;1.45;;
22476;SDS011;11405;51.698;-0.292;2022-07-23T00:14:22;2.40;;;1.60;;
22476;SDS011;11405;51.698;-0.292;2022-07-23T00:16:48;5.97;;;1.83;;
22476;SDS011;11405;51.698;-0.292;2022-07-23T00:19:14;4.32;;;1.70;;
22476;SDS011;11405;51.698;-0.292;2022-07-23T00:21:40;2.90;;;1.42;;
22476;SDS011;11405;51.698;-0.292;2022-07-23T00:24:06;4.70;;;1.70;;
22476;SDS011;11405;51.698;-0.292;2022-07-23T00:26:32;6.60;;;1.50;;
22476;SDS011;11405;51.698;-0.292;2022-07-23T00:28:58;5.32;;;2.03;;
22476;SDS011;11405;51.698;-0.292;2022-07-23T00:31:24;3.00;;;1.52;;
22476;SDS011;11405;51.698;-0.292;2022-07-23T00:33:50;6.63;;;1.70;;
22476;SDS011;11405;51.698;-0.292;2022-07-23T00:36:17;7.97;;;2.22;;
22476;SDS011;11405;51.698;-0.292;2022-07-23T00:38:43;6.38;;;1.83;;
22476;SDS011;11405;51.698;-0.292;2022-07-23T00:41:09;3.75;;;1.80;;
22476;SDS011;11405;51.698;-0.292;2022-07-23T00:43:35;5.70;;;1.63;;
22476;SDS011;11405;51.698;-0.292;2022-07-23T00:46:01;6.32;;;2.05;;
22476;SDS011;11405;51.698;-0.292;2022-07-23T00:48:27;4.53;;;1.50;;
22476;SDS011;11405;51.698;-0.292;2022-07-23T00:50:53;2.05;;;1.70;;
22476;SDS011;11405;51.698;-0.292;2022-07-23T00:53:19;4.95;;;1.60;;
22476;SDS011;11405;51.698;-0.292;2022-07-23T00:55:46;8.50;;;2.80;;
22476;SDS011;11405;51.698;-0.292;2022-07-23T00:58:13;4.85;;;2.38;;
22476;SDS011;11405;51.698;-0.292;2022-07-23T01:00:39;4.28;;;2.30;;
22476;SDS011;11405;51.698;-0.292;2022-07-23T01:03:05;8.93;;;1.70;;
22476;SDS011;11405;51.698;-0.292;2022-07-23T01:05:32;3.45;;;1.60;;
22476;SDS011;11405;51.698;-0.292;2022-07-23T01:07:58;5.22;;;1.58;;
22476;SDS011;11405;51.698;-0.292;2022-07-23T01:10:24;7.50;;;1.30;;
22476;SDS011;11405;51.698;-0.292;2022-07-23T01:13:00;3.08;;;1.48;;
22476;SDS011;11405;51.698;-0.292;2022-07-23T01:15:26;3.50;;;2.00;;
22476;SDS011;11405;51.698;-0.292;2022-07-23T01:17:52;2.92;;;1.80;;
22476;SDS011;11405;51.698;-0.292;2022-07-23T01:20:18;5.53;;;1.75;;
22476;SDS011;11405;51.698;-0.292;2022-07-23T01:22:45;4.45;;;1.63;;
22476;SDS011;11405;51.698;-0.292;2022-07-23T01:25:11;4.53;;;1.60;;
22476;SDS011;11405;51.698;-0.292;2022-07-23T01:27:37;1.65;;;1.40;;
22476;SDS011;11405;51.698;-0.292;2022-07-23T01:30:03;4.65;;;1.98;;
22476;SDS011;11405;51.698;-0.292;2022-07-23T01:32:29;3.47;;;1.85;;
22476;SDS011;11405;51.698;-0.292;2022-07-23T01:34:56;8.10;;;1.95;;
22476;SDS011;11405;51.698;-0.292;2022-07-23T01:37:22;4.85;;;1.80;;
22476;SDS011;11405;51.698;-0.292;2022-07-23T01:39:49;7.78;;;1.70;;
22476;SDS011;11405;51.698;-0.292;2022-07-23T01:42:15;6.53;;;1.90;;
22476;SDS011;11405;51.698;-0.292;2022-07-23T01:44:41;3.45;;;2.30;;
22476;SDS011;11405;51.698;-0.292;2022-07-23T01:47:07;3.92;;;1.63;;
22476;SDS011;11405;51.698;-0.292;2022-07-23T01:49:33;3.83;;;1.88;;
22476;SDS011;11405;51.698;-0.292;2022-07-23T01:51:59;4.97;;;1.92;;
22476;SDS011;11405;51.698;-0.292;2022-07-23T01:54:29;5.53;;;2.47;;
22476;SDS011;11405;51.698;-0.292;2022-07-23T01:56:55;4.68;;;2.22;;
22476;SDS011;11405;51.698;-0.292;2022-07-23T01:59:21;5.05;;;1.92;;
22476;SDS011;11405;51.698;-0.292;2022-07-23T02:01:48;8.52;;;2.17;;
22476;SDS011;11405;51.698;-0.292;2022-07-23T02:04:16;4.95;;;2.20;;
22476;SDS011;11405;51.698;-0.292;2022-07-23T02:09:08;5.05;;;2.13;;
22476;SDS011;11405;51.698;-0.292;2022-07-23T02:11:34;3.92;;;2.22;;
22476;SDS011;11405;51.698;-0.292;2022-07-23T02:14:00;7.55;;;2.45;;
22476;SDS011;11405;51.698;-0.292;2022-07-23T02:16:26;6.85;;;2.17;;
22476;SDS011;11405;51.698;-0.292;2022-07-23T02:18:52;6.18;;;2.70;;
22476;SDS011;11405;51.698;-0.292;2022-07-23T02:21:18;7.50;;;2.50;;
22476;SDS011;11405;51.698;-0.292;2022-07-23T02:23:44;7.53;;;2.38;;
22476;SDS011;11405;51.698;-0.292;2022-07-23T02:26:10;4.22;;;2.58;;
22476;SDS011;11405;51.698;-0.292;2022-07-23T02:28:36;6.90;;;2.40;;
22476;SDS011;11405;51.698;-0.292;2022-07-23T02:31:02;5.20;;;2.13;;
22476;SDS011;11405;51.698;-0.292;2022-07-23T02:33:29;6.03;;;2.15;;
22476;SDS011;11405;51.698;-0.292;2022-07-23T02:35:55;5.38;;;2.15;;
22476;SDS011;11405;51.698;-0.292;2022-07-23T02:38:21;8.00;;;2.30;;
22476;SDS011;11405;51.698;-0.292;2022-07-23T02:40:47;4.15;;;2.13;;
22476;SDS011;11405;51.698;-0.292;2022-07-23T02:43:13;9.68;;;1.70;;
22476;SDS011;11405;51.698;-0.292;2022-07-23T02:45:39;5.80;;;1.98;;
22476;SDS011;11405;51.698;-0.292;2022-07-23T02:48:05;5.72;;;1.65;;
22476;SDS011;11405;51.698;-0.292;2022-07-23T02:50:31;4.15;;;1.65;;
22476;SDS011;11405;51.698;-0.292;2022-07-23T02:52:57;3.47;;;1.35;;
22476;SDS011;11405;51.698;-0.292;2022-07-23T02:55:23;5.35;;;1.60;;
22476;SDS011;11405;51.698;-0.292;2022-07-23T02:57:49;6.05;;;2.13;;
22476;SDS011;11405;51.698;-0.292;2022-07-23T03:00:16;8.07;;;1.90;;
22476;SDS011;11405;51.698;-0.292;2022-07-23T03:02:42;5.03;;;1.73;;
22476;SDS011;11405;51.698;-0.292;2022-07-23T03:05:08;5.28;;;1.45;;
22476;SDS011;11405;51.698;-0.292;2022-07-23T03:07:34;6.82;;;1.80;;
22476;SDS011;11405;51.698;-0.292;2022-07-23T03:10:00;4.68;;;1.73;;
22476;SDS011;11405;51.698;-0.292;2022-07-23T03:12:26;4.60;;;1.80;;
22476;SDS011;11405;51.698;-0.292;2022-07-23T03:14:52;5.05;;;2.10;;
22476;SDS011;11405;51.698;-0.292;2022-07-23T03:17:19;8.18;;;2.15;;
22476;SDS011;11405;51.698;-0.292;2022-07-23T03:19:45;5.32;;;1.55;;
22476;SDS011;11405;51.698;-0.292;2022-07-23T03:22:11;2.28;;;1.67;;
22476;SDS011;11405;51.698;-0.292;2022-07-23T03:24:37;5.45;;;2.17;;
22476;SDS011;11405;51.698;-0.292;2022-07-23T03:27:25;6.22;;;1.80;;
22476;SDS011;11405;51.698;-0.292;2022-07-23T03:29:52;4.85;;;1.35;;
22476;SDS011;11405;51.698;-0.292;2022-07-23T03:32:18;3.38;;;1.73;;
22476;SDS011;11405;51.698;-0.292;2022-07-23T03:34:44;2.17;;;1.50;;
22476;SDS011;11405;51.698;-0.292;2022-07-23T03:37:10;4.72;;;1.90;;
22476;SDS011;11405;51.698;-0.292;2022-07-23T03:39:36;3.95;;;2.10;;
22476;SDS011;11405;51.698;-0.292;2022-07-23T03:42:04;8.13;;;1.90;;
22476;SDS011;11405;51.698;-0.292;2022-07-23T03:44:30;5.45;;;2.20;;
22476;SDS011;11405;51.698;-0.292;2022-07-23T03:46:56;5.13;;;1.90;;
22476;SDS011;11405;51.698;-0.292;2022-07-23T03:49:22;5.70;;;1.77;;
22476;SDS011;11405;51.698;-0.292;2022-07-23T03:51:48;4.20;;;2.35;;
22476;SDS011;11405;51.698;-0.292;2022-07-23T03:54:14;6.43;;;2.00;;
22476;SDS011;11405;51.698;-0.292;2022-07-23T03:56:40;3.28;;;1.73;;
22476;SDS011;11405;51.698;-0.292;2022-07-23T03:59:07;6.10;;;1.90;;
22476;SDS011;11405;51.698;-0.292;2022-07-23T04:01:33;11.40;;;2.15;;
22476;SDS011;11405;51.698;-0.292;2022-07-23T04:03:59;7.47;;;2.05;;
22476;SDS011;11405;51.698;-0.292;2022-07-23T04:06:25;5.18;;;1.92;;
22476;SDS011;11405;51.698;-0.292;2022-07-23T04:08:51;3.97;;;2.03;;
22476;SDS011;11405;51.698;-0.292;2022-07-23T04:11:17;6.80;;;1.92;;
22476;SDS011;11405;51.698;-0.292;2022-07-23T04:13:43;5.10;;;2.05;;
22476;SDS011;11405;51.698;-0.292;2022-07-23T04:16:10;3.95;;;1.92;;
22476;SDS011;11405;51.698;-0.292;2022-07-23T04:18:36;7.22;;;1.90;;
22476;SDS011;11405;51.698;-0.292;2022-07-23T04:21:02;2.50;;;1.60;;
22476;SDS011;11405;51.698;-0.292;2022-07-23T04:23:28;3.95;;;1.88;;
22476;SDS011;11405;51.698;-0.292;2022-07-23T04:25:54;7.30;;;2.22;;
22476;SDS011;11405;51.698;-0.292;2022-07-23T04:28:20;2.42;;;1.58;;
22476;SDS011;11405;51.698;-0.292;2022-07-23T04:30:46;3.20;;;1.77;;
22476;SDS011;11405;51.698;-0.292;2022-07-23T04:33:12;5.43;;;2.30;;
22476;SDS011;11405;51.698;-0.292;2022-07-23T04:35:40;3.92;;;2.03;;
22476;SDS011;11405;51.698;-0.292;2022-07-23T04:38:06;4.97;;;1.75;;
22476;SDS011;11405;51.698;-0.292;2022-07-23T04:40:33;4.35;;;1.90;;
22476;SDS011;11405;51.698;-0.292;2022-07-23T04:42:59;4.00;;;2.05;;
22476;SDS011;11405;51.698;-0.292;2022-07-23T04:45:25;5.22;;;2.40;;
22476;SDS011;11405;51.698;-0.292;2022-07-23T04:47:51;8.05;;;2.58;;
22476;SDS011;11405;51.698;-0.292;2022-07-23T04:50:17;5.38;;;2.55;;
22476;SDS011;11405;51.698;-0.292;2022-07-23T04:52:46;7.53;;;2.40;;
22476;SDS011;11405;51.698;-0.292;2022-07-23T04:55:13;5.60;;;2.30;;
22476;SDS011;11405;51.698;-0.292;2022-07-23T04:57:39;5.10;;;2.60;;
22476;SDS011;11405;51.698;-0.292;2022-07-23T05:00:05;6.65;;;2.50;;
22476;SDS011;11405;51.698;-0.292;2022-07-23T05:02:32;5.85;;;2.67;;
22476;SDS011;11405;51.698;-0.292;2022-07-23T05:04:58;5.57;;;2.85;;
22476;SDS011;11405;51.698;-0.292;2022-07-23T05:07:24;6.28;;;2.70;;
22476;SDS011;11405;51.698;-0.292;2022-07-23T05:09:50;5.90;;;2.47;;
22476;SDS011;11405;51.698;-0.292;2022-07-23T05:12:16;5.60;;;2.85;;
22476;SDS011;11405;51.698;-0.292;2022-07-23T05:14:42;4.28;;;2.20;;
22476;SDS011;11405;51.698;-0.292;2022-07-23T05:17:08;6.35;;;2.25;;
22476;SDS011;11405;51.698;-0.292;2022-07-23T05:19:34;4.72;;;2.70;;
22476;SDS011;11405;51.698;-0.292;2022-07-23T05:22:00;6.00;;;2.42;;
22476;SDS011;11405;51.698;-0.292;2022-07-23T05:24:27;7.00;;;2.55;;
22476;SDS011;11405;51.698;-0.292;2022-07-23T05:26:53;6.95;;;2.78;;
22476;SDS011;11405;51.698;-0.292;2022-07-23T05:29:19;5.72;;;2.92;;
22476;SDS011;11405;51.698;-0.292;2022-07-23T05:31:45;7.57;;;3.08;;
22476;SDS011;11405;51.698;-0.292;2022-07-23T05:34:11;3.42;;;2.25;;
22476;SDS011;11405;51.698;-0.292;2022-07-23T05:36:37;9.02;;;3.35;;
22476;SDS011;11405;51.698;-0.292;2022-07-23T05:39:03;6.25;;;2.63;;
22476;SDS011;11405;51.698;-0.292;2022-07-23T05:41:29;6.53;;;3.13;;
22476;SDS011;11405;51.698;-0.292;2022-07-23T05:43:56;8.88;;;4.25;;
22476;SDS011;11405;51.698;-0.292;2022-07-23T05:46:22;7.72;;;3.35;;
22476;SDS011;11405;51.698;-0.292;2022-07-23T05:48:48;7.50;;;3.80;;
22476;SDS011;11405;51.698;-0.292;2022-07-23T05:51:21;10.15;;;4.95;;
22476;SDS011;11405;51.698;-0.292;2022-07-23T05:53:47;8.02;;;4.80;;
22476;SDS011;11405;51.698;-0.292;2022-07-23T05:56:13;7.25;;;4.45;;
22476;SDS011;11405;51.698;-0.292;2022-07-23T05:58:40;11.00;;;4.30;;
22476;SDS011;11405;51.698;-0.292;2022-07-23T06:01:06;8.48;;;4.65;;
22476;SDS011;11405;51.698;-0.292;2022-07-23T06:03:32;7.88;;;4.63;;
22476;SDS011;11405;51.698;-0.292;2022-07-23T06:05:58;8.88;;;4.72;;
22476;SDS011;11405;51.698;-0.292;2022-07-23T06:08:25;7.18;;;4.60;;
22476;SDS011;11405;51.698;-0.292;2022-07-23T06:10:51;7.28;;;4.43;;
22476;SDS011;11405;51.698;-0.292;2022-07-23T06:13:17;9.20;;;4.13;;
22476;SDS011;11405;51.698;-0.292;2022-07-23T06:18:09;6.65;;;4.20;;
22476;SDS011;11405;51.698;-0.292;2022-07-23T06:20:36;10.88;;;4.55;;
22476;SDS011;11405;51.698;-0.292;2022-07-23T06:23:03;6.40;;;3.97;;
22476;SDS011;11405;51.698;-0.292;2022-07-23T06:25:29;8.98;;;5.03;;
22476;SDS011;11405;51.698;-0.292;2022-07-23T06:27:55;8.15;;;4.35;;
22476;SDS011;11405;51.698;-0.292;2022-07-23T06:30:21;9.82;;;3.80;;
22476;SDS011;11405;51.698;-0.292;2022-07-23T06:32:48;9.05;;;3.97;;
22476;SDS011;11405;51.698;-0.292;2022-07-23T06:37:40;7.75;;;4.38;;
22476;SDS011;11405;51.698;-0.292;2022-07-23T06:40:06;7.07;;;3.67;;
22476;SDS011;11405;51.698;-0.292;2022-07-23T06:42:33;11.20;;;4.00;;
22476;SDS011;11405;51.698;-0.292;2022-07-23T06:45:01;10.70;;;2.97;;
22476;SDS011;11405;51.698;-0.292;2022-07-23T06:47:27;10.73;;;3.22;;
22476;SDS011;11405;51.698;-0.292;2022-07-23T06:49:53;8.93;;;2.97;;
22476;SDS011;11405;51.698;-0.292;2022-07-23T06:52:21;13.43;;;3.28;;
22476;SDS011;11405;51.698;-0.292;2022-07-23T06:54:47;7.15;;;3.55;;
